sensor_id;sensor_type;location;lat;lon;timestamp;P1;durP1;ratioP1;P2;durP2;ratioP2
10309;SDS011;5200;43.236;27.986;2023-07-22T00:00:00;10.73;;;8.10;;
10309;SDS011;5200;43.236;27.986;2023-07-22T00:02:32;14.98;;;8.07;;
10309;SDS011;5200;43.236;27.986;2023-07-22T00:04:59;11.68;;;8.57;;
10309;SDS011;5200;43.236;27.986;2023-07-22T00:07:25;15.40;;;7.93;;
10309;SDS011;5200;43.236;27.986;2023-07-22T00:09:52;8.82;;;7.75;;
10309;SDS011;5200;43.236;27.986;2023-07-22T00:12:19;12.13;;;8.07;;
10309;SDS011;5200;43.236;27.986;2023-07-22T00:14:50;8.27;;;6.93;;
10309;SDS011;5200;43.236;27.986;2023-07-22T00:17:18;11.05;;;7.82;;
10309;SDS011;5200;43.236;27.986;2023-07-22T00:19:47;13.75;;;8.55;;
10309;SDS011;5200;43.236;27.986;2023-07-22T00:22:14;10.70;;;8.15;;
10309;SDS011;5200;43.236;27.986;2023-07-22T00:24:41;8.80;;;7.80;;
10309;SDS011;5200;43.236;27.986;2023-07-22T00:27:08;10.60;;;8.18;;
10309;SDS011;5200;43.236;27.986;2023-07-22T00:29:35;12.27;;;8.63;;
10309;SDS011;5200;43.236;27.986;2023-07-22T00:32:02;13.68;;;8.50;;
10309;SDS011;5200;43.236;27.986;2023-07-22T00:34:33;12.50;;;7.68;;
10309;SDS011;5200;43.236;27.986;2023-07-22T00:37:01;9.40;;;8.30;;
10309;SDS011;5200;43.236;27.986;2023-07-22T00:39:28;11.95;;;8.40;;
10309;SDS011;5200;43.236;27.986;2023-07-22T00:41:55;13.60;;;8.93;;
10309;SDS011;5200;43.236;27.986;2023-07-22T00:44:22;9.70;;;8.10;;
10309;SDS011;5200;43.236;27.986;2023-07-22T00:46:48;11.60;;;8.95;;
10309;SDS011;5200;43.236;27.986;2023-07-22T00:49:19;11.43;;;8.55;;
10309;SDS011;5200;43.236;27.986;2023-07-22T00:51:46;11.52;;;8.70;;
10309;SDS011;5200;43.236;27.986;2023-07-22T00:54:14;10.52;;;8.55;;
10309;SDS011;5200;43.236;27.986;2023-07-22T00:56:42;13.13;;;9.32;;
10309;SDS011;5200;43.236;27.986;2023-07-22T00:59:10;10.63;;;8.80;;
10309;SDS011;5200;43.236;27.986;2023-07-22T01:01:37;14.80;;;8.70;;
10309;SDS011;5200;43.236;27.986;2023-07-22T01:04:04;14.82;;;8.95;;
10309;SDS011;5200;43.236;27.986;2023-07-22T01:06:31;10.30;;;9.05;;
10309;SDS011;5200;43.236;27.986;2023-07-22T01:08:58;16.90;;;9.10;;
10309;SDS011;5200;43.236;27.986;2023-07-22T01:11:26;11.57;;;9.05;;
10309;SDS011;5200;43.236;27.986;2023-07-22T01:13:53;10.65;;;8.20;;
10309;SDS011;5200;43.236;27.986;2023-07-22T01:16:24;13.52;;;8.80;;
10309;SDS011;5200;43.236;27.986;2023-07-22T01:18:53;13.30;;;8.70;;
10309;SDS011;5200;43.236;27.986;2023-07-22T01:21:20;9.90;;;8.98;;
10309;SDS011;5200;43.236;27.986;2023-07-22T01:23:50;12.57;;;9.73;;
10309;SDS011;5200;43.236;27.986;2023-07-22T01:26:17;19.35;;;10.30;;
10309;SDS011;5200;43.236;27.986;2023-07-22T01:28:45;10.85;;;8.70;;
10309;SDS011;5200;43.236;27.986;2023-07-22T01:31:12;12.05;;;9.32;;
10309;SDS011;5200;43.236;27.986;2023-07-22T01:33:38;13.52;;;8.77;;
10309;SDS011;5200;43.236;27.986;2023-07-22T01:36:05;11.10;;;9.90;;
10309;SDS011;5200;43.236;27.986;2023-07-22T01:38:32;12.00;;;8.85;;
10309;SDS011;5200;43.236;27.986;2023-07-22T01:41:02;11.07;;;9.43;;
10309;SDS011;5200;43.236;27.986;2023-07-22T01:43:29;13.70;;;9.73;;
10309;SDS011;5200;43.236;27.986;2023-07-22T01:45:55;9.88;;;8.57;;
10309;SDS011;5200;43.236;27.986;2023-07-22T01:48:22;14.32;;;9.35;;
10309;SDS011;5200;43.236;27.986;2023-07-22T01:50:49;14.70;;;9.85;;
10309;SDS011;5200;43.236;27.986;2023-07-22T01:53:16;12.95;;;10.38;;
10309;SDS011;5200;43.236;27.986;2023-07-22T01:55:43;15.98;;;10.55;;
10309;SDS011;5200;43.236;27.986;2023-07-22T01:58:12;12.18;;;9.60;;
10309;SDS011;5200;43.236;27.986;2023-07-22T02:00:39;9.95;;;8.98;;
10309;SDS011;5200;43.236;27.986;2023-07-22T02:03:05;12.98;;;9.88;;
10309;SDS011;5200;43.236;27.986;2023-07-22T02:05:32;11.43;;;9.60;;
10309;SDS011;5200;43.236;27.986;2023-07-22T02:07:59;13.05;;;10.25;;
10309;SDS011;5200;43.236;27.986;2023-07-22T02:10:26;13.10;;;9.93;;
10309;SDS011;5200;43.236;27.986;2023-07-22T02:12:52;13.80;;;9.35;;
10309;SDS011;5200;43.236;27.986;2023-07-22T02:15:21;11.88;;;10.27;;
10309;SDS011;5200;43.236;27.986;2023-07-22T02:17:49;15.95;;;10.27;;
10309;SDS011;5200;43.236;27.986;2023-07-22T02:20:16;16.35;;;10.75;;
10309;SDS011;5200;43.236;27.986;2023-07-22T02:22:43;18.55;;;10.50;;
10309;SDS011;5200;43.236;27.986;2023-07-22T02:25:10;12.57;;;9.77;;
10309;SDS011;5200;43.236;27.986;2023-07-22T02:27:37;12.50;;;9.25;;
10309;SDS011;5200;43.236;27.986;2023-07-22T02:30:06;10.75;;;9.65;;
10309;SDS011;5200;43.236;27.986;2023-07-22T02:32:38;14.32;;;9.23;;
10309;SDS011;5200;43.236;27.986;2023-07-22T02:35:05;16.15;;;9.68;;
10309;SDS011;5200;43.236;27.986;2023-07-22T02:37:33;14.73;;;9.30;;
10309;SDS011;5200;43.236;27.986;2023-07-22T02:40:00;15.20;;;9.15;;
10309;SDS011;5200;43.236;27.986;2023-07-22T02:42:33;11.18;;;9.85;;
10309;SDS011;5200;43.236;27.986;2023-07-22T02:45:00;11.80;;;9.50;;
10309;SDS011;5200;43.236;27.986;2023-07-22T02:47:26;13.25;;;9.77;;
10309;SDS011;5200;43.236;27.986;2023-07-22T02:49:55;15.10;;;9.20;;
10309;SDS011;5200;43.236;27.986;2023-07-22T02:52:21;16.10;;;9.50;;
10309;SDS011;5200;43.236;27.986;2023-07-22T02:55:03;13.45;;;9.77;;
10309;SDS011;5200;43.236;27.986;2023-07-22T02:57:32;13.57;;;10.60;;
10309;SDS011;5200;43.236;27.986;2023-07-22T02:59:59;13.77;;;10.02;;
10309;SDS011;5200;43.236;27.986;2023-07-22T03:02:30;9.93;;;8.93;;
10309;SDS011;5200;43.236;27.986;2023-07-22T03:04:58;12.32;;;9.48;;
10309;SDS011;5200;43.236;27.986;2023-07-22T03:07:24;10.55;;;9.50;;
10309;SDS011;5200;43.236;27.986;2023-07-22T03:09:52;11.93;;;9.20;;
10309;SDS011;5200;43.236;27.986;2023-07-22T03:12:19;10.63;;;9.48;;
10309;SDS011;5200;43.236;27.986;2023-07-22T03:14:46;12.45;;;8.75;;
10309;SDS011;5200;43.236;27.986;2023-07-22T03:17:12;12.50;;;9.00;;
10309;SDS011;5200;43.236;27.986;2023-07-22T03:19:42;13.45;;;9.25;;
10309;SDS011;5200;43.236;27.986;2023-07-22T03:22:10;11.63;;;9.15;;
10309;SDS011;5200;43.236;27.986;2023-07-22T03:24:38;12.93;;;8.82;;
10309;SDS011;5200;43.236;27.986;2023-07-22T03:27:05;15.05;;;9.48;;
10309;SDS011;5200;43.236;27.986;2023-07-22T03:29:32;10.05;;;8.63;;
10309;SDS011;5200;43.236;27.986;2023-07-22T03:31:59;10.10;;;8.60;;
10309;SDS011;5200;43.236;27.986;2023-07-22T03:34:26;10.82;;;8.25;;
10309;SDS011;5200;43.236;27.986;2023-07-22T03:36:53;11.52;;;7.93;;
10309;SDS011;5200;43.236;27.986;2023-07-22T03:39:21;10.23;;;7.55;;
10309;SDS011;5200;43.236;27.986;2023-07-22T03:41:48;9.32;;;7.57;;
10309;SDS011;5200;43.236;27.986;2023-07-22T03:44:15;9.93;;;7.13;;
10309;SDS011;5200;43.236;27.986;2023-07-22T03:46:42;8.10;;;7.28;;
10309;SDS011;5200;43.236;27.986;2023-07-22T03:49:09;13.32;;;6.97;;
10309;SDS011;5200;43.236;27.986;2023-07-22T03:51:36;7.68;;;6.75;;
10309;SDS011;5200;43.236;27.986;2023-07-22T03:54:02;8.63;;;6.45;;
10309;SDS011;5200;43.236;27.986;2023-07-22T03:56:31;9.52;;;5.38;;
10309;SDS011;5200;43.236;27.986;2023-07-22T03:58:57;15.18;;;5.88;;
10309;SDS011;5200;43.236;27.986;2023-07-22T04:01:24;9.65;;;6.45;;
10309;SDS011;5200;43.236;27.986;2023-07-22T04:03:51;10.32;;;5.72;;
10309;SDS011;5200;43.236;27.986;2023-07-22T04:06:18;8.00;;;5.63;;
10309;SDS011;5200;43.236;27.986;2023-07-22T04:08:44;7.90;;;5.25;;
10309;SDS011;5200;43.236;27.986;2023-07-22T04:11:11;6.28;;;5.40;;
10309;SDS011;5200;43.236;27.986;2023-07-22T04:13:40;7.15;;;4.85;;
10309;SDS011;5200;43.236;27.986;2023-07-22T04:16:07;7.90;;;5.43;;
10309;SDS011;5200;43.236;27.986;2023-07-22T04:18:34;10.35;;;5.90;;
10309;SDS011;5200;43.236;27.986;2023-07-22T04:21:01;7.45;;;5.05;;
10309;SDS011;5200;43.236;27.986;2023-07-22T04:23:28;9.85;;;5.22;;
10309;SDS011;5200;43.236;27.986;2023-07-22T04:25:54;6.95;;;5.18;;
10309;SDS011;5200;43.236;27.986;2023-07-22T04:28:21;8.00;;;4.78;;
10309;SDS011;5200;43.236;27.986;2023-07-22T04:30:56;10.90;;;5.60;;
10309;SDS011;5200;43.236;27.986;2023-07-22T04:33:23;8.73;;;5.05;;
10309;SDS011;5200;43.236;27.986;2023-07-22T04:35:52;7.97;;;5.07;;
10309;SDS011;5200;43.236;27.986;2023-07-22T04:38:19;5.93;;;4.65;;
10309;SDS011;5200;43.236;27.986;2023-07-22T04:40:46;5.82;;;5.20;;
10309;SDS011;5200;43.236;27.986;2023-07-22T04:43:13;6.47;;;4.78;;
10309;SDS011;5200;43.236;27.986;2023-07-22T04:45:40;9.20;;;5.32;;
10309;SDS011;5200;43.236;27.986;2023-07-22T04:48:08;9.30;;;5.15;;
10309;SDS011;5200;43.236;27.986;2023-07-22T04:50:36;6.25;;;4.70;;
10309;SDS011;5200;43.236;27.986;2023-07-22T04:53:05;8.13;;;5.85;;
10309;SDS011;5200;43.236;27.986;2023-07-22T04:55:33;5.82;;;4.72;;
10309;SDS011;5200;43.236;27.986;2023-07-22T04:58:00;7.60;;;4.60;;
10309;SDS011;5200;43.236;27.986;2023-07-22T05:00:26;6.60;;;4.30;;
10309;SDS011;5200;43.236;27.986;2023-07-22T05:02:54;6.20;;;4.50;;
10309;SDS011;5200;43.236;27.986;2023-07-22T05:05:23;9.48;;;4.47;;
10309;SDS011;5200;43.236;27.986;2023-07-22T05:07:49;6.07;;;4.95;;
10309;SDS011;5200;43.236;27.986;2023-07-22T05:10:18;6.43;;;4.05;;
10309;SDS011;5200;43.236;27.986;2023-07-22T05:12:45;9.27;;;4.47;;
10309;SDS011;5200;43.236;27.986;2023-07-22T05:15:12;6.38;;;4.75;;
10309;SDS011;5200;43.236;27.986;2023-07-22T05:17:40;8.48;;;4.88;;
10309;SDS011;5200;43.236;27.986;2023-07-22T05:20:07;6.07;;;4.75;;
10309;SDS011;5200;43.236;27.986;2023-07-22T05:22:37;6.00;;;5.40;;
10309;SDS011;5200;43.236;27.986;2023-07-22T05:25:05;6.65;;;4.78;;
10309;SDS011;5200;43.236;27.986;2023-07-22T05:27:32;5.53;;;4.45;;
10309;SDS011;5200;43.236;27.986;2023-07-22T05:29:59;5.45;;;4.20;;
10309;SDS011;5200;43.236;27.986;2023-07-22T05:32:27;7.05;;;4.88;;
10309;SDS011;5200;43.236;27.986;2023-07-22T05:34:54;4.95;;;4.32;;
10309;SDS011;5200;43.236;27.986;2023-07-22T05:37:21;7.55;;;4.07;;
10309;SDS011;5200;43.236;27.986;2023-07-22T05:39:50;4.65;;;4.20;;
10309;SDS011;5200;43.236;27.986;2023-07-22T05:42:17;7.93;;;4.55;;
10309;SDS011;5200;43.236;27.986;2023-07-22T05:44:43;4.53;;;4.07;;
10309;SDS011;5200;43.236;27.986;2023-07-22T05:47:10;5.38;;;3.97;;
10309;SDS011;5200;43.236;27.986;2023-07-22T05:49:37;6.07;;;4.65;;
10309;SDS011;5200;43.236;27.986;2023-07-22T05:52:04;9.52;;;4.97;;
10309;SDS011;5200;43.236;27.986;2023-07-22T05:54:31;5.38;;;4.30;;
10309;SDS011;5200;43.236;27.986;2023-07-22T05:57:00;5.53;;;3.83;;
10309;SDS011;5200;43.236;27.986;2023-07-22T06:01:57;5.35;;;4.25;;
10309;SDS011;5200;43.236;27.986;2023-07-22T06:04:24;6.35;;;4.72;;
10309;SDS011;5200;43.236;27.986;2023-07-22T06:06:59;7.10;;;4.22;;
10309;SDS011;5200;43.236;27.986;2023-07-22T06:09:26;8.85;;;4.93;;
10309;SDS011;5200;43.236;27.986;2023-07-22T06:11:53;5.22;;;4.00;;
10309;SDS011;5200;43.236;27.986;2023-07-22T06:14:21;4.85;;;4.07;;
10309;SDS011;5200;43.236;27.986;2023-07-22T06:16:47;5.30;;;4.03;;
10309;SDS011;5200;43.236;27.986;2023-07-22T06:19:14;6.60;;;3.80;;
10309;SDS011;5200;43.236;27.986;2023-07-22T06:21:41;8.20;;;4.20;;
10309;SDS011;5200;43.236;27.986;2023-07-22T06:24:08;7.35;;;4.18;;
10309;SDS011;5200;43.236;27.986;2023-07-22T06:26:35;8.27;;;4.13;;
10309;SDS011;5200;43.236;27.986;2023-07-22T06:29:02;5.90;;;4.43;;
10309;SDS011;5200;43.236;27.986;2023-07-22T06:31:31;5.75;;;4.43;;
10309;SDS011;5200;43.236;27.986;2023-07-22T06:33:58;6.07;;;4.20;;
10309;SDS011;5200;43.236;27.986;2023-07-22T06:36:25;7.05;;;4.30;;
10309;SDS011;5200;43.236;27.986;2023-07-22T06:38:53;7.05;;;3.72;;
10309;SDS011;5200;43.236;27.986;2023-07-22T06:41:20;6.22;;;3.80;;
10309;SDS011;5200;43.236;27.986;2023-07-22T06:43:49;6.72;;;4.40;;
10309;SDS011;5200;43.236;27.986;2023-07-22T06:46:16;6.55;;;4.28;;
10309;SDS011;5200;43.236;27.986;2023-07-22T06:48:44;4.18;;;3.78;;
10309;SDS011;5200;43.236;27.986;2023-07-22T06:51:11;4.30;;;3.90;;
10309;SDS011;5200;43.236;27.986;2023-07-22T06:53:38;6.55;;;4.22;;
10309;SDS011;5200;43.236;27.986;2023-07-22T06:56:06;5.15;;;3.65;;
10309;SDS011;5200;43.236;27.986;2023-07-22T06:58:32;9.80;;;4.38;;
10309;SDS011;5200;43.236;27.986;2023-07-22T07:00:59;7.72;;;5.45;;
10309;SDS011;5200;43.236;27.986;2023-07-22T07:03:27;6.07;;;3.85;;
10309;SDS011;5200;43.236;27.986;2023-07-22T07:05:55;6.03;;;4.38;;
10309;SDS011;5200;43.236;27.986;2023-07-22T07:08:23;6.47;;;4.63;;
10309;SDS011;5200;43.236;27.986;2023-07-22T07:10:50;5.95;;;3.55;;
10309;SDS011;5200;43.236;27.986;2023-07-22T07:13:17;4.85;;;3.50;;
10309;SDS011;5200;43.236;27.986;2023-07-22T07:15:46;4.13;;;3.63;;
10309;SDS011;5200;43.236;27.986;2023-07-22T07:18:14;6.05;;;3.97;;
10309;SDS011;5200;43.236;27.986;2023-07-22T07:20:41;8.90;;;4.30;;
10309;SDS011;5200;43.236;27.986;2023-07-22T07:23:09;8.85;;;4.68;;
10309;SDS011;5200;43.236;27.986;2023-07-22T07:25:37;8.63;;;4.75;;
10309;SDS011;5200;43.236;27.986;2023-07-22T07:28:03;7.13;;;4.47;;
10309;SDS011;5200;43.236;27.986;2023-07-22T07:30:30;7.25;;;4.40;;
10309;SDS011;5200;43.236;27.986;2023-07-22T07:32:57;4.82;;;4.20;;
10309;SDS011;5200;43.236;27.986;2023-07-22T07:35:41;7.05;;;4.50;;
10309;SDS011;5200;43.236;27.986;2023-07-22T07:38:13;5.18;;;4.65;;
10309;SDS011;5200;43.236;27.986;2023-07-22T07:40:40;5.28;;;4.10;;
10309;SDS011;5200;43.236;27.986;2023-07-22T07:43:07;6.13;;;4.18;;
10309;SDS011;5200;43.236;27.986;2023-07-22T07:45:34;6.80;;;4.32;;
10309;SDS011;5200;43.236;27.986;2023-07-22T07:48:04;6.75;;;3.92;;
10309;SDS011;5200;43.236;27.986;2023-07-22T07:50:32;4.78;;;4.32;;
10309;SDS011;5200;43.236;27.986;2023-07-22T07:52:58;5.35;;;4.32;;
10309;SDS011;5200;43.236;27.986;2023-07-22T07:55:27;89.97;;;8.77;;
10309;SDS011;5200;43.236;27.986;2023-07-22T07:57:53;7.47;;;4.38;;
10309;SDS011;5200;43.236;27.986;2023-07-22T08:00:20;10.43;;;4.00;;
10309;SDS011;5200;43.236;27.986;2023-07-22T08:02:47;4.97;;;3.83;;
10309;SDS011;5200;43.236;27.986;2023-07-22T08:05:14;6.13;;;3.70;;
10309;SDS011;5200;43.236;27.986;2023-07-22T08:07:41;4.95;;;3.45;;
10309;SDS011;5200;43.236;27.986;2023-07-22T08:10:08;4.75;;;3.20;;
10309;SDS011;5200;43.236;27.986;2023-07-22T08:12:37;6.75;;;3.97;;
10309;SDS011;5200;43.236;27.986;2023-07-22T08:15:04;4.55;;;3.85;;
10309;SDS011;5200;43.236;27.986;2023-07-22T08:17:35;5.20;;;3.90;;
10309;SDS011;5200;43.236;27.986;2023-07-22T08:20:02;4.93;;;3.90;;
10309;SDS011;5200;43.236;27.986;2023-07-22T08:22:31;6.50;;;4.20;;
10309;SDS011;5200;43.236;27.986;2023-07-22T08:24:58;5.45;;;3.55;;
10309;SDS011;5200;43.236;27.986;2023-07-22T08:27:26;7.75;;;4.20;;
10309;SDS011;5200;43.236;27.986;2023-07-22T08:29:54;4.07;;;3.30;;
10309;SDS011;5200;43.236;27.986;2023-07-22T08:32:21;3.58;;;3.28;;
10309;SDS011;5200;43.236;27.986;2023-07-22T08:34:48;4.68;;;3.60;;
10309;SDS011;5200;43.236;27.986;2023-07-22T08:37:15;8.75;;;3.92;;
10309;SDS011;5200;43.236;27.986;2023-07-22T08:39:41;5.15;;;3.65;;
10309;SDS011;5200;43.236;27.986;2023-07-22T08:42:08;5.20;;;3.85;;
10309;SDS011;5200;43.236;27.986;2023-07-22T08:44:37;3.80;;;3.47;;
10309;SDS011;5200;43.236;27.986;2023-07-22T08:47:09;5.55;;;4.10;;
10309;SDS011;5200;43.236;27.986;2023-07-22T08:49:40;4.55;;;3.85;;
10309;SDS011;5200;43.236;27.986;2023-07-22T08:52:11;10.70;;;3.75;;
10309;SDS011;5200;43.236;27.986;2023-07-22T08:54:40;6.95;;;3.70;;
10309;SDS011;5200;43.236;27.986;2023-07-22T08:57:09;7.13;;;3.70;;
10309;SDS011;5200;43.236;27.986;2023-07-22T08:59:37;5.00;;;3.90;;
10309;SDS011;5200;43.236;27.986;2023-07-22T09:02:05;5.82;;;4.35;;
10309;SDS011;5200;43.236;27.986;2023-07-22T09:04:36;5.25;;;3.58;;
10309;SDS011;5200;43.236;27.986;2023-07-22T09:07:03;6.53;;;3.60;;
10309;SDS011;5200;43.236;27.986;2023-07-22T09:09:30;4.75;;;3.42;;
10309;SDS011;5200;43.236;27.986;2023-07-22T09:11:57;8.38;;;3.78;;
10309;SDS011;5200;43.236;27.986;2023-07-22T09:14:26;6.25;;;3.42;;
10309;SDS011;5200;43.236;27.986;2023-07-22T09:16:57;6.10;;;3.65;;
10309;SDS011;5200;43.236;27.986;2023-07-22T09:19:24;4.95;;;3.67;;
10309;SDS011;5200;43.236;27.986;2023-07-22T09:21:53;4.78;;;3.47;;
10309;SDS011;5200;43.236;27.986;2023-07-22T09:24:20;6.60;;;3.85;;
10309;SDS011;5200;43.236;27.986;2023-07-22T09:26:48;5.07;;;3.85;;
10309;SDS011;5200;43.236;27.986;2023-07-22T09:29:15;3.55;;;3.25;;
10309;SDS011;5200;43.236;27.986;2023-07-22T09:31:48;5.60;;;4.15;;
10309;SDS011;5200;43.236;27.986;2023-07-22T09:34:16;5.18;;;3.50;;
10309;SDS011;5200;43.236;27.986;2023-07-22T09:36:54;8.52;;;3.20;;
10309;SDS011;5200;43.236;27.986;2023-07-22T09:39:22;5.30;;;3.33;;
10309;SDS011;5200;43.236;27.986;2023-07-22T09:41:50;6.43;;;3.75;;
10309;SDS011;5200;43.236;27.986;2023-07-22T09:44:18;8.07;;;3.78;;
10309;SDS011;5200;43.236;27.986;2023-07-22T09:46:46;5.43;;;3.80;;
10309;SDS011;5200;43.236;27.986;2023-07-22T09:49:14;4.68;;;3.33;;
10309;SDS011;5200;43.236;27.986;2023-07-22T09:51:43;6.60;;;3.65;;
10309;SDS011;5200;43.236;27.986;2023-07-22T09:54:12;4.75;;;3.53;;
10309;SDS011;5200;43.236;27.986;2023-07-22T09:56:43;8.82;;;3.75;;
10309;SDS011;5200;43.236;27.986;2023-07-22T09:59:11;5.03;;;3.80;;
10309;SDS011;5200;43.236;27.986;2023-07-22T10:01:38;4.90;;;3.63;;
10309;SDS011;5200;43.236;27.986;2023-07-22T10:04:05;5.70;;;3.95;;
10309;SDS011;5200;43.236;27.986;2023-07-22T10:06:33;6.78;;;3.95;;
10309;SDS011;5200;43.236;27.986;2023-07-22T10:09:02;5.10;;;3.53;;
10309;SDS011;5200;43.236;27.986;2023-07-22T10:11:34;8.10;;;4.03;;
10309;SDS011;5200;43.236;27.986;2023-07-22T10:14:01;7.13;;;3.92;;
10309;SDS011;5200;43.236;27.986;2023-07-22T10:16:28;6.38;;;3.83;;
10309;SDS011;5200;43.236;27.986;2023-07-22T10:18:56;4.30;;;3.85;;
10309;SDS011;5200;43.236;27.986;2023-07-22T10:21:24;5.50;;;3.70;;
10309;SDS011;5200;43.236;27.986;2023-07-22T10:23:52;5.18;;;3.60;;
10309;SDS011;5200;43.236;27.986;2023-07-22T10:26:19;4.55;;;3.88;;
10309;SDS011;5200;43.236;27.986;2023-07-22T10:28:47;5.25;;;3.70;;
10309;SDS011;5200;43.236;27.986;2023-07-22T10:31:14;4.93;;;3.80;;
10309;SDS011;5200;43.236;27.986;2023-07-22T10:33:44;5.78;;;3.70;;
10309;SDS011;5200;43.236;27.986;2023-07-22T10:36:13;4.60;;;3.50;;
10309;SDS011;5200;43.236;27.986;2023-07-22T10:38:42;5.18;;;3.28;;
10309;SDS011;5200;43.236;27.986;2023-07-22T10:41:13;6.40;;;3.63;;
10309;SDS011;5200;43.236;27.986;2023-07-22T10:43:42;5.32;;;3.80;;
10309;SDS011;5200;43.236;27.986;2023-07-22T10:46:31;4.32;;;3.85;;
10309;SDS011;5200;43.236;27.986;2023-07-22T10:49:06;4.47;;;3.28;;
10309;SDS011;5200;43.236;27.986;2023-07-22T10:51:35;9.77;;;4.18;;
10309;SDS011;5200;43.236;27.986;2023-07-22T10:54:03;5.22;;;3.38;;
10309;SDS011;5200;43.236;27.986;2023-07-22T10:56:37;9.00;;;3.65;;
10309;SDS011;5200;43.236;27.986;2023-07-22T10:59:05;6.65;;;3.40;;
10309;SDS011;5200;43.236;27.986;2023-07-22T11:01:38;5.03;;;3.60;;
10309;SDS011;5200;43.236;27.986;2023-07-22T11:04:11;6.25;;;3.28;;
10309;SDS011;5200;43.236;27.986;2023-07-22T11:06:51;4.40;;;3.25;;
10309;SDS011;5200;43.236;27.986;2023-07-22T11:12:11;4.28;;;3.35;;
10309;SDS011;5200;43.236;27.986;2023-07-22T11:14:44;5.60;;;3.50;;
10309;SDS011;5200;43.236;27.986;2023-07-22T11:17:14;7.78;;;3.45;;
10309;SDS011;5200;43.236;27.986;2023-07-22T11:19:42;6.07;;;3.70;;
10309;SDS011;5200;43.236;27.986;2023-07-22T11:22:10;5.82;;;3.65;;
10309;SDS011;5200;43.236;27.986;2023-07-22T11:24:38;6.63;;;3.72;;
10309;SDS011;5200;43.236;27.986;2023-07-22T11:27:05;4.47;;;3.42;;
10309;SDS011;5200;43.236;27.986;2023-07-22T11:29:34;6.38;;;4.13;;
10309;SDS011;5200;43.236;27.986;2023-07-22T11:32:02;7.70;;;3.45;;
10309;SDS011;5200;43.236;27.986;2023-07-22T11:34:32;5.35;;;3.47;;
10309;SDS011;5200;43.236;27.986;2023-07-22T11:36:59;5.13;;;3.33;;
10309;SDS011;5200;43.236;27.986;2023-07-22T11:39:26;5.85;;;3.58;;
10309;SDS011;5200;43.236;27.986;2023-07-22T11:41:56;9.07;;;3.60;;
10309;SDS011;5200;43.236;27.986;2023-07-22T11:44:26;6.13;;;3.50;;
10309;SDS011;5200;43.236;27.986;2023-07-22T11:46:56;9.60;;;3.88;;
10309;SDS011;5200;43.236;27.986;2023-07-22T11:49:25;7.72;;;3.22;;
10309;SDS011;5200;43.236;27.986;2023-07-22T11:51:58;8.13;;;3.47;;
10309;SDS011;5200;43.236;27.986;2023-07-22T11:54:26;6.78;;;3.75;;
10309;SDS011;5200;43.236;27.986;2023-07-22T11:56:53;5.75;;;3.28;;
10309;SDS011;5200;43.236;27.986;2023-07-22T11:59:33;6.47;;;3.80;;
10309;SDS011;5200;43.236;27.986;2023-07-22T12:02:01;5.32;;;3.10;;
10309;SDS011;5200;43.236;27.986;2023-07-22T12:04:30;5.18;;;3.65;;
10309;SDS011;5200;43.236;27.986;2023-07-22T12:06:58;11.40;;;3.67;;
10309;SDS011;5200;43.236;27.986;2023-07-22T12:09:25;7.40;;;4.15;;
10309;SDS011;5200;43.236;27.986;2023-07-22T12:11:54;6.97;;;3.70;;
10309;SDS011;5200;43.236;27.986;2023-07-22T12:14:23;7.85;;;3.45;;
10309;SDS011;5200;43.236;27.986;2023-07-22T12:16:52;6.95;;;3.80;;
10309;SDS011;5200;43.236;27.986;2023-07-22T12:19:28;4.65;;;3.30;;
10309;SDS011;5200;43.236;27.986;2023-07-22T12:21:57;10.20;;;4.18;;
10309;SDS011;5200;43.236;27.986;2023-07-22T12:24:24;7.88;;;3.60;;
10309;SDS011;5200;43.236;27.986;2023-07-22T12:26:51;4.47;;;3.70;;
10309;SDS011;5200;43.236;27.986;2023-07-22T12:29:18;7.35;;;4.00;;
10309;SDS011;5200;43.236;27.986;2023-07-22T12:31:45;4.72;;;3.30;;
10309;SDS011;5200;43.236;27.986;2023-07-22T12:34:12;5.65;;;3.42;;
10309;SDS011;5200;43.236;27.986;2023-07-22T12:36:39;8.88;;;4.10;;
10309;SDS011;5200;43.236;27.986;2023-07-22T12:39:07;6.45;;;3.70;;
10309;SDS011;5200;43.236;27.986;2023-07-22T12:41:34;5.22;;;3.35;;
10309;SDS011;5200;43.236;27.986;2023-07-22T12:44:01;5.78;;;3.97;;
10309;SDS011;5200;43.236;27.986;2023-07-22T12:46:28;4.85;;;3.75;;
10309;SDS011;5200;43.236;27.986;2023-07-22T12:48:55;6.03;;;3.70;;
10309;SDS011;5200;43.236;27.986;2023-07-22T12:51:22;8.23;;;3.50;;
10309;SDS011;5200;43.236;27.986;2023-07-22T12:53:49;8.10;;;3.60;;
10309;SDS011;5200;43.236;27.986;2023-07-22T12:56:17;4.75;;;3.42;;
10309;SDS011;5200;43.236;27.986;2023-07-22T12:58:44;6.03;;;3.63;;
10309;SDS011;5200;43.236;27.986;2023-07-22T13:01:11;5.72;;;3.40;;
10309;SDS011;5200;43.236;27.986;2023-07-22T13:03:38;4.80;;;3.45;;
10309;SDS011;5200;43.236;27.986;2023-07-22T13:06:05;8.15;;;3.30;;
10309;SDS011;5200;43.236;27.986;2023-07-22T13:08:32;6.72;;;3.47;;
10309;SDS011;5200;43.236;27.986;2023-07-22T13:10:59;4.13;;;3.40;;
10309;SDS011;5200;43.236;27.986;2023-07-22T13:13:27;7.47;;;3.50;;
10309;SDS011;5200;43.236;27.986;2023-07-22T13:15:54;5.38;;;3.25;;
10309;SDS011;5200;43.236;27.986;2023-07-22T13:18:22;8.70;;;3.78;;
10309;SDS011;5200;43.236;27.986;2023-07-22T13:20:49;6.90;;;3.63;;
10309;SDS011;5200;43.236;27.986;2023-07-22T13:23:15;8.27;;;3.97;;
10309;SDS011;5200;43.236;27.986;2023-07-22T13:25:42;10.30;;;3.60;;
10309;SDS011;5200;43.236;27.986;2023-07-22T13:28:09;5.97;;;3.60;;
10309;SDS011;5200;43.236;27.986;2023-07-22T13:30:37;7.20;;;3.92;;
10309;SDS011;5200;43.236;27.986;2023-07-22T13:33:04;5.28;;;3.85;;
10309;SDS011;5200;43.236;27.986;2023-07-22T13:35:31;5.72;;;3.60;;
10309;SDS011;5200;43.236;27.986;2023-07-22T13:37:58;8.82;;;3.63;;
10309;SDS011;5200;43.236;27.986;2023-07-22T13:40:26;5.90;;;3.72;;
10309;SDS011;5200;43.236;27.986;2023-07-22T13:42:53;8.27;;;3.70;;
10309;SDS011;5200;43.236;27.986;2023-07-22T13:45:20;6.75;;;3.75;;
10309;SDS011;5200;43.236;27.986;2023-07-22T13:47:48;8.65;;;3.38;;
10309;SDS011;5200;43.236;27.986;2023-07-22T13:50:15;5.03;;;3.38;;
10309;SDS011;5200;43.236;27.986;2023-07-22T13:52:41;6.38;;;3.33;;
10309;SDS011;5200;43.236;27.986;2023-07-22T13:55:09;5.35;;;3.42;;
10309;SDS011;5200;43.236;27.986;2023-07-22T13:57:35;7.25;;;4.10;;
10309;SDS011;5200;43.236;27.986;2023-07-22T14:00:02;4.70;;;3.53;;
10309;SDS011;5200;43.236;27.986;2023-07-22T14:02:43;6.72;;;4.22;;
10309;SDS011;5200;43.236;27.986;2023-07-22T14:05:11;8.95;;;3.67;;
10309;SDS011;5200;43.236;27.986;2023-07-22T14:07:38;5.20;;;3.75;;
10309;SDS011;5200;43.236;27.986;2023-07-22T14:10:06;4.68;;;3.45;;
10309;SDS011;5200;43.236;27.986;2023-07-22T14:12:34;6.35;;;3.83;;
10309;SDS011;5200;43.236;27.986;2023-07-22T14:15:00;8.80;;;4.05;;
10309;SDS011;5200;43.236;27.986;2023-07-22T14:17:29;4.35;;;3.65;;
10309;SDS011;5200;43.236;27.986;2023-07-22T14:19:57;6.95;;;4.15;;
10309;SDS011;5200;43.236;27.986;2023-07-22T14:22:25;6.75;;;4.22;;
10309;SDS011;5200;43.236;27.986;2023-07-22T14:24:52;7.20;;;3.78;;
10309;SDS011;5200;43.236;27.986;2023-07-22T14:27:19;4.28;;;3.33;;
10309;SDS011;5200;43.236;27.986;2023-07-22T14:29:46;6.50;;;3.88;;
10309;SDS011;5200;43.236;27.986;2023-07-22T14:32:13;8.10;;;4.05;;
10309;SDS011;5200;43.236;27.986;2023-07-22T14:34:41;6.03;;;4.05;;
10309;SDS011;5200;43.236;27.986;2023-07-22T14:37:08;8.18;;;3.80;;
10309;SDS011;5200;43.236;27.986;2023-07-22T14:39:36;3.70;;;3.40;;
10309;SDS011;5200;43.236;27.986;2023-07-22T14:42:03;5.10;;;3.40;;
10309;SDS011;5200;43.236;27.986;2023-07-22T14:44:30;5.53;;;3.70;;
10309;SDS011;5200;43.236;27.986;2023-07-22T14:46:57;4.10;;;3.45;;
10309;SDS011;5200;43.236;27.986;2023-07-22T14:51:54;5.10;;;3.90;;
10309;SDS011;5200;43.236;27.986;2023-07-22T14:54:21;7.10;;;3.17;;